sensor_id;sensor_type;location;lat;lon;timestamp;P1;durP1;ratioP1;P2;durP2;ratioP2
53652;SDS011;39553;52.954;5.932;2023-01-16T00:01:13;9.65;;;3.65;;
53652;SDS011;39553;52.954;5.932;2023-01-16T00:03:40;5.97;;;3.38;;
53652;SDS011;39553;52.954;5.932;2023-01-16T00:06:05;8.82;;;4.60;;
53652;SDS011;39553;52.954;5.932;2023-01-16T00:08:31;8.18;;;4.07;;
53652;SDS011;39553;52.954;5.932;2023-01-16T00:10:57;6.97;;;3.85;;
53652;SDS011;39553;52.954;5.932;2023-01-16T00:13:23;9.52;;;4.43;;
53652;SDS011;39553;52.954;5.932;2023-01-16T00:15:49;8.73;;;3.75;;
53652;SDS011;39553;52.954;5.932;2023-01-16T00:18:16;5.95;;;3.35;;
53652;SDS011;39553;52.954;5.932;2023-01-16T00:20:42;10.48;;;4.90;;
53652;SDS011;39553;52.954;5.932;2023-01-16T00:23:11;8.32;;;4.60;;
53652;SDS011;39553;52.954;5.932;2023-01-16T00:25:40;7.38;;;3.83;;
53652;SDS011;39553;52.954;5.932;2023-01-16T00:28:11;10.73;;;4.50;;
53652;SDS011;39553;52.954;5.932;2023-01-16T00:30:37;5.70;;;3.65;;
53652;SDS011;39553;52.954;5.932;2023-01-16T00:33:03;11.82;;;4.05;;
53652;SDS011;39553;52.954;5.932;2023-01-16T00:35:29;8.30;;;3.55;;
53652;SDS011;39553;52.954;5.932;2023-01-16T00:37:56;10.02;;;3.75;;
53652;SDS011;39553;52.954;5.932;2023-01-16T00:40:21;10.15;;;3.75;;
53652;SDS011;39553;52.954;5.932;2023-01-16T00:42:48;9.55;;;4.00;;
53652;SDS011;39553;52.954;5.932;2023-01-16T00:45:13;8.60;;;3.50;;
53652;SDS011;39553;52.954;5.932;2023-01-16T00:47:39;10.48;;;3.85;;
53652;SDS011;39553;52.954;5.932;2023-01-16T00:50:05;6.00;;;4.38;;
53652;SDS011;39553;52.954;5.932;2023-01-16T00:52:31;9.23;;;4.03;;
53652;SDS011;39553;52.954;5.932;2023-01-16T00:54:57;7.90;;;3.83;;
53652;SDS011;39553;52.954;5.932;2023-01-16T00:57:22;7.82;;;3.97;;
53652;SDS011;39553;52.954;5.932;2023-01-16T00:59:48;11.63;;;3.50;;
53652;SDS011;39553;52.954;5.932;2023-01-16T01:02:14;10.20;;;4.03;;
53652;SDS011;39553;52.954;5.932;2023-01-16T01:04:41;11.20;;;3.42;;
53652;SDS011;39553;52.954;5.932;2023-01-16T01:07:07;6.28;;;3.15;;
53652;SDS011;39553;52.954;5.932;2023-01-16T01:09:32;5.25;;;3.22;;
53652;SDS011;39553;52.954;5.932;2023-01-16T01:11:59;8.13;;;3.60;;
53652;SDS011;39553;52.954;5.932;2023-01-16T01:14:25;6.78;;;3.22;;
53652;SDS011;39553;52.954;5.932;2023-01-16T01:16:51;6.05;;;3.15;;
53652;SDS011;39553;52.954;5.932;2023-01-16T01:19:18;10.52;;;3.40;;
53652;SDS011;39553;52.954;5.932;2023-01-16T01:21:44;7.82;;;3.40;;
53652;SDS011;39553;52.954;5.932;2023-01-16T01:24:11;3.97;;;3.00;;
53652;SDS011;39553;52.954;5.932;2023-01-16T01:26:36;7.80;;;3.22;;
53652;SDS011;39553;52.954;5.932;2023-01-16T01:29:02;8.90;;;3.47;;
53652;SDS011;39553;52.954;5.932;2023-01-16T01:31:29;16.10;;;3.58;;
53652;SDS011;39553;52.954;5.932;2023-01-16T01:33:55;12.02;;;3.97;;
53652;SDS011;39553;52.954;5.932;2023-01-16T01:36:22;7.38;;;3.28;;
53652;SDS011;39553;52.954;5.932;2023-01-16T01:38:48;10.18;;;3.40;;
53652;SDS011;39553;52.954;5.932;2023-01-16T01:41:15;7.22;;;3.13;;
53652;SDS011;39553;52.954;5.932;2023-01-16T01:43:43;6.53;;;3.50;;
53652;SDS011;39553;52.954;5.932;2023-01-16T01:46:21;11.23;;;3.55;;
53652;SDS011;39553;52.954;5.932;2023-01-16T01:48:55;10.63;;;3.63;;
53652;SDS011;39553;52.954;5.932;2023-01-16T01:51:34;8.18;;;3.42;;
53652;SDS011;39553;52.954;5.932;2023-01-16T01:54:07;7.38;;;2.88;;
53652;SDS011;39553;52.954;5.932;2023-01-16T01:59:25;12.13;;;4.35;;
53652;SDS011;39553;52.954;5.932;2023-01-16T02:01:54;6.68;;;2.85;;
53652;SDS011;39553;52.954;5.932;2023-01-16T02:04:25;6.55;;;3.20;;
53652;SDS011;39553;52.954;5.932;2023-01-16T02:06:56;8.07;;;3.35;;
53652;SDS011;39553;52.954;5.932;2023-01-16T02:09:26;8.13;;;2.97;;
53652;SDS011;39553;52.954;5.932;2023-01-16T02:11:56;8.80;;;3.38;;
53652;SDS011;39553;52.954;5.932;2023-01-16T02:14:26;11.25;;;3.17;;
53652;SDS011;39553;52.954;5.932;2023-01-16T02:16:59;6.30;;;3.20;;
53652;SDS011;39553;52.954;5.932;2023-01-16T02:36:20;6.45;;;3.47;;
53652;SDS011;39553;52.954;5.932;2023-01-16T02:39:07;10.82;;;3.47;;
53652;SDS011;39553;52.954;5.932;2023-01-16T02:54:57;11.10;;;3.88;;
53652;SDS011;39553;52.954;5.932;2023-01-16T02:57:30;8.82;;;4.10;;
53652;SDS011;39553;52.954;5.932;2023-01-16T03:00:04;7.63;;;3.95;;
53652;SDS011;39553;52.954;5.932;2023-01-16T03:02:31;7.30;;;4.10;;
53652;SDS011;39553;52.954;5.932;2023-01-16T03:04:57;6.78;;;3.90;;
53652;SDS011;39553;52.954;5.932;2023-01-16T03:12:50;7.25;;;4.63;;
53652;SDS011;39553;52.954;5.932;2023-01-16T03:18:38;9.52;;;4.57;;
53652;SDS011;39553;52.954;5.932;2023-01-16T03:21:10;8.40;;;4.80;;
53652;SDS011;39553;52.954;5.932;2023-01-16T03:23:52;11.95;;;5.28;;
53652;SDS011;39553;52.954;5.932;2023-01-16T03:31:57;11.02;;;4.80;;
53652;SDS011;39553;52.954;5.932;2023-01-16T03:34:53;7.90;;;4.70;;
53652;SDS011;39553;52.954;5.932;2023-01-16T03:37:35;17.35;;;6.00;;
53652;SDS011;39553;52.954;5.932;2023-01-16T03:40:07;11.13;;;6.32;;
53652;SDS011;39553;52.954;5.932;2023-01-16T03:42:38;12.20;;;6.30;;
53652;SDS011;39553;52.954;5.932;2023-01-16T03:45:11;11.10;;;5.88;;
53652;SDS011;39553;52.954;5.932;2023-01-16T03:47:49;18.35;;;6.97;;
53652;SDS011;39553;52.954;5.932;2023-01-16T03:50:28;16.20;;;6.68;;
53652;SDS011;39553;52.954;5.932;2023-01-16T03:52:57;11.60;;;6.82;;
53652;SDS011;39553;52.954;5.932;2023-01-16T03:55:37;11.85;;;7.22;;
53652;SDS011;39553;52.954;5.932;2023-01-16T03:58:24;18.80;;;7.97;;
53652;SDS011;39553;52.954;5.932;2023-01-16T04:01:06;17.83;;;10.30;;
53652;SDS011;39553;52.954;5.932;2023-01-16T04:03:40;16.85;;;8.63;;
53652;SDS011;39553;52.954;5.932;2023-01-16T04:06:13;14.27;;;8.23;;
53652;SDS011;39553;52.954;5.932;2023-01-16T04:08:47;17.42;;;8.80;;
53652;SDS011;39553;52.954;5.932;2023-01-16T04:11:16;20.85;;;8.25;;
53652;SDS011;39553;52.954;5.932;2023-01-16T04:13:44;22.63;;;9.52;;
53652;SDS011;39553;52.954;5.932;2023-01-16T04:16:13;21.75;;;8.93;;
53652;SDS011;39553;52.954;5.932;2023-01-16T04:18:43;16.05;;;8.82;;
53652;SDS011;39553;52.954;5.932;2023-01-16T04:21:09;18.42;;;8.90;;
53652;SDS011;39553;52.954;5.932;2023-01-16T04:23:35;18.67;;;8.80;;
53652;SDS011;39553;52.954;5.932;2023-01-16T04:26:01;18.50;;;9.30;;
53652;SDS011;39553;52.954;5.932;2023-01-16T04:28:27;20.27;;;10.73;;
53652;SDS011;39553;52.954;5.932;2023-01-16T04:30:53;20.27;;;10.63;;
53652;SDS011;39553;52.954;5.932;2023-01-16T04:33:19;30.60;;;12.43;;
53652;SDS011;39553;52.954;5.932;2023-01-16T04:35:45;23.08;;;10.77;;
53652;SDS011;39553;52.954;5.932;2023-01-16T04:38:10;24.80;;;11.13;;
53652;SDS011;39553;52.954;5.932;2023-01-16T04:40:37;18.65;;;10.15;;
53652;SDS011;39553;52.954;5.932;2023-01-16T04:43:03;19.15;;;11.00;;
53652;SDS011;39553;52.954;5.932;2023-01-16T04:45:29;19.33;;;10.70;;
53652;SDS011;39553;52.954;5.932;2023-01-16T04:47:54;22.33;;;11.18;;
53652;SDS011;39553;52.954;5.932;2023-01-16T04:50:20;24.70;;;10.98;;
53652;SDS011;39553;52.954;5.932;2023-01-16T04:52:46;21.40;;;10.82;;
53652;SDS011;39553;52.954;5.932;2023-01-16T04:55:12;28.73;;;11.52;;
53652;SDS011;39553;52.954;5.932;2023-01-16T04:57:38;27.70;;;11.90;;
53652;SDS011;39553;52.954;5.932;2023-01-16T05:00:05;25.98;;;11.68;;
53652;SDS011;39553;52.954;5.932;2023-01-16T05:02:32;23.90;;;11.18;;
53652;SDS011;39553;52.954;5.932;2023-01-16T05:04:58;25.58;;;12.98;;
53652;SDS011;39553;52.954;5.932;2023-01-16T05:07:24;26.10;;;12.80;;
53652;SDS011;39553;52.954;5.932;2023-01-16T05:09:52;22.45;;;11.40;;
53652;SDS011;39553;52.954;5.932;2023-01-16T05:12:18;23.98;;;13.07;;
53652;SDS011;39553;52.954;5.932;2023-01-16T05:14:46;28.70;;;13.32;;
53652;SDS011;39553;52.954;5.932;2023-01-16T05:17:12;31.95;;;13.38;;
53652;SDS011;39553;52.954;5.932;2023-01-16T05:19:37;28.10;;;11.90;;
53652;SDS011;39553;52.954;5.932;2023-01-16T05:22:03;23.98;;;13.68;;
53652;SDS011;39553;52.954;5.932;2023-01-16T05:24:29;25.38;;;13.40;;
53652;SDS011;39553;52.954;5.932;2023-01-16T05:26:55;25.05;;;12.57;;
53652;SDS011;39553;52.954;5.932;2023-01-16T05:29:21;30.67;;;13.45;;
53652;SDS011;39553;52.954;5.932;2023-01-16T05:31:46;25.00;;;13.88;;
53652;SDS011;39553;52.954;5.932;2023-01-16T05:34:12;32.35;;;13.73;;
53652;SDS011;39553;52.954;5.932;2023-01-16T05:36:38;30.13;;;13.23;;
53652;SDS011;39553;52.954;5.932;2023-01-16T05:39:04;24.23;;;11.07;;
53652;SDS011;39553;52.954;5.932;2023-01-16T05:41:29;26.38;;;12.10;;
53652;SDS011;39553;52.954;5.932;2023-01-16T05:43:55;23.55;;;11.70;;
53652;SDS011;39553;52.954;5.932;2023-01-16T05:46:21;24.52;;;11.65;;
53652;SDS011;39553;52.954;5.932;2023-01-16T05:48:46;22.88;;;12.05;;
53652;SDS011;39553;52.954;5.932;2023-01-16T05:51:12;22.60;;;10.82;;
53652;SDS011;39553;52.954;5.932;2023-01-16T05:53:38;21.83;;;10.88;;
53652;SDS011;39553;52.954;5.932;2023-01-16T05:56:10;21.17;;;10.63;;
53652;SDS011;39553;52.954;5.932;2023-01-16T05:58:37;19.48;;;9.60;;
53652;SDS011;39553;52.954;5.932;2023-01-16T06:01:06;19.80;;;9.43;;
53652;SDS011;39553;52.954;5.932;2023-01-16T06:03:32;22.85;;;10.18;;
53652;SDS011;39553;52.954;5.932;2023-01-16T06:05:57;16.27;;;8.82;;
53652;SDS011;39553;52.954;5.932;2023-01-16T06:08:26;16.15;;;8.23;;
53652;SDS011;39553;52.954;5.932;2023-01-16T06:10:52;14.27;;;8.95;;
53652;SDS011;39553;52.954;5.932;2023-01-16T06:13:19;25.83;;;8.85;;
53652;SDS011;39553;52.954;5.932;2023-01-16T06:15:45;23.88;;;9.48;;
53652;SDS011;39553;52.954;5.932;2023-01-16T06:18:11;21.75;;;9.43;;
53652;SDS011;39553;52.954;5.932;2023-01-16T06:20:39;15.50;;;9.25;;
53652;SDS011;39553;52.954;5.932;2023-01-16T06:23:05;14.60;;;8.63;;
53652;SDS011;39553;52.954;5.932;2023-01-16T06:25:30;22.90;;;8.65;;
53652;SDS011;39553;52.954;5.932;2023-01-16T06:27:57;22.00;;;9.15;;
53652;SDS011;39553;52.954;5.932;2023-01-16T06:30:23;16.73;;;9.15;;
53652;SDS011;39553;52.954;5.932;2023-01-16T06:32:49;20.83;;;9.20;;
53652;SDS011;39553;52.954;5.932;2023-01-16T06:35:15;19.23;;;9.38;;
53652;SDS011;39553;52.954;5.932;2023-01-16T06:37:41;20.95;;;9.07;;
53652;SDS011;39553;52.954;5.932;2023-01-16T06:40:07;20.80;;;8.57;;
53652;SDS011;39553;52.954;5.932;2023-01-16T06:42:34;13.68;;;6.75;;
53652;SDS011;39553;52.954;5.932;2023-01-16T06:44:59;14.23;;;7.55;;
53652;SDS011;39553;52.954;5.932;2023-01-16T06:47:25;13.68;;;7.68;;
53652;SDS011;39553;52.954;5.932;2023-01-16T06:49:52;19.65;;;7.75;;
53652;SDS011;39553;52.954;5.932;2023-01-16T06:52:18;14.45;;;6.80;;
53652;SDS011;39553;52.954;5.932;2023-01-16T06:54:44;16.77;;;7.15;;
53652;SDS011;39553;52.954;5.932;2023-01-16T06:57:10;14.45;;;6.82;;
53652;SDS011;39553;52.954;5.932;2023-01-16T06:59:35;16.20;;;7.00;;
53652;SDS011;39553;52.954;5.932;2023-01-16T07:02:01;11.45;;;6.82;;
53652;SDS011;39553;52.954;5.932;2023-01-16T07:04:27;16.42;;;7.85;;
53652;SDS011;39553;52.954;5.932;2023-01-16T07:06:53;12.45;;;6.40;;
53652;SDS011;39553;52.954;5.932;2023-01-16T07:09:18;14.65;;;9.55;;
53652;SDS011;39553;52.954;5.932;2023-01-16T07:11:47;12.65;;;6.55;;
53652;SDS011;39553;52.954;5.932;2023-01-16T07:14:13;25.77;;;8.65;;
53652;SDS011;39553;52.954;5.932;2023-01-16T07:16:56;15.00;;;6.53;;
53652;SDS011;39553;52.954;5.932;2023-01-16T07:19:41;13.67;;;5.27;;
53652;SDS011;39553;52.954;5.932;2023-01-16T07:22:25;15.00;;;5.53;;
53652;SDS011;39553;52.954;5.932;2023-01-16T07:25:03;8.85;;;4.93;;
53652;SDS011;39553;52.954;5.932;2023-01-16T07:27:36;17.73;;;6.25;;
53652;SDS011;39553;52.954;5.932;2023-01-16T07:30:02;8.98;;;4.97;;
53652;SDS011;39553;52.954;5.932;2023-01-16T07:32:29;9.32;;;4.63;;
53652;SDS011;39553;52.954;5.932;2023-01-16T07:34:54;8.18;;;5.20;;
53652;SDS011;39553;52.954;5.932;2023-01-16T07:37:20;11.57;;;5.28;;
53652;SDS011;39553;52.954;5.932;2023-01-16T07:39:46;15.20;;;5.72;;
53652;SDS011;39553;52.954;5.932;2023-01-16T07:42:12;12.85;;;5.50;;
53652;SDS011;39553;52.954;5.932;2023-01-16T07:44:37;13.15;;;5.18;;
53652;SDS011;39553;52.954;5.932;2023-01-16T07:47:03;10.75;;;4.97;;
53652;SDS011;39553;52.954;5.932;2023-01-16T07:49:29;11.02;;;3.90;;
53652;SDS011;39553;52.954;5.932;2023-01-16T07:51:54;12.50;;;4.85;;
53652;SDS011;39553;52.954;5.932;2023-01-16T07:54:20;9.45;;;3.92;;
53652;SDS011;39553;52.954;5.932;2023-01-16T07:56:47;16.40;;;4.57;;
53652;SDS011;39553;52.954;5.932;2023-01-16T07:59:14;8.45;;;4.45;;
53652;SDS011;39553;52.954;5.932;2023-01-16T08:01:40;13.35;;;5.00;;
53652;SDS011;39553;52.954;5.932;2023-01-16T08:04:07;10.40;;;4.45;;
53652;SDS011;39553;52.954;5.932;2023-01-16T08:06:33;17.27;;;4.20;;
53652;SDS011;39553;52.954;5.932;2023-01-16T08:08:59;7.88;;;3.95;;
53652;SDS011;39553;52.954;5.932;2023-01-16T08:11:25;13.27;;;3.60;;
53652;SDS011;39553;52.954;5.932;2023-01-16T08:14:01;9.07;;;5.00;;
53652;SDS011;39553;52.954;5.932;2023-01-16T08:16:27;12.63;;;4.32;;
53652;SDS011;39553;52.954;5.932;2023-01-16T08:18:53;9.10;;;3.97;;
53652;SDS011;39553;52.954;5.932;2023-01-16T08:21:19;7.55;;;3.80;;
53652;SDS011;39553;52.954;5.932;2023-01-16T08:23:45;10.00;;;5.50;;
53652;SDS011;39553;52.954;5.932;2023-01-16T08:26:11;8.95;;;3.60;;
53652;SDS011;39553;52.954;5.932;2023-01-16T08:28:41;7.20;;;3.70;;
53652;SDS011;39553;52.954;5.932;2023-01-16T08:31:07;16.60;;;6.45;;
53652;SDS011;39553;52.954;5.932;2023-01-16T08:33:36;12.13;;;4.63;;
53652;SDS011;39553;52.954;5.932;2023-01-16T08:36:06;9.30;;;4.38;;
53652;SDS011;39553;52.954;5.932;2023-01-16T08:38:34;9.43;;;4.68;;
53652;SDS011;39553;52.954;5.932;2023-01-16T08:41:00;15.35;;;4.80;;
53652;SDS011;39553;52.954;5.932;2023-01-16T08:43:26;13.43;;;4.45;;
53652;SDS011;39553;52.954;5.932;2023-01-16T08:49:01;11.45;;;4.47;;
53652;SDS011;39553;52.954;5.932;2023-01-16T08:51:46;8.35;;;4.25;;
53652;SDS011;39553;52.954;5.932;2023-01-16T08:54:12;13.38;;;4.50;;
53652;SDS011;39553;52.954;5.932;2023-01-16T08:56:38;8.30;;;4.28;;
53652;SDS011;39553;52.954;5.932;2023-01-16T08:59:08;10.25;;;4.47;;
53652;SDS011;39553;52.954;5.932;2023-01-16T09:01:35;13.98;;;5.00;;
53652;SDS011;39553;52.954;5.932;2023-01-16T09:04:02;10.43;;;5.05;;
53652;SDS011;39553;52.954;5.932;2023-01-16T09:06:27;9.50;;;4.68;;
53652;SDS011;39553;52.954;5.932;2023-01-16T09:08:55;9.57;;;4.70;;
53652;SDS011;39553;52.954;5.932;2023-01-16T09:11:20;14.55;;;4.72;;
53652;SDS011;39553;52.954;5.932;2023-01-16T09:14:05;12.32;;;4.78;;
53652;SDS011;39553;52.954;5.932;2023-01-16T09:16:31;6.80;;;4.45;;
53652;SDS011;39553;52.954;5.932;2023-01-16T09:18:56;12.68;;;5.05;;
53652;SDS011;39553;52.954;5.932;2023-01-16T09:21:22;14.77;;;5.63;;
53652;SDS011;39553;52.954;5.932;2023-01-16T09:23:50;13.68;;;4.85;;
53652;SDS011;39553;52.954;5.932;2023-01-16T09:26:16;7.05;;;4.40;;
53652;SDS011;39553;52.954;5.932;2023-01-16T09:28:42;8.77;;;4.28;;
53652;SDS011;39553;52.954;5.932;2023-01-16T09:31:10;12.85;;;5.68;;
53652;SDS011;39553;52.954;5.932;2023-01-16T09:33:35;10.18;;;5.05;;
53652;SDS011;39553;52.954;5.932;2023-01-16T09:36:02;9.27;;;4.88;;
53652;SDS011;39553;52.954;5.932;2023-01-16T09:38:28;8.13;;;4.88;;
53652;SDS011;39553;52.954;5.932;2023-01-16T09:40:55;11.98;;;4.95;;
53652;SDS011;39553;52.954;5.932;2023-01-16T09:43:36;8.10;;;4.55;;
53652;SDS011;39553;52.954;5.932;2023-01-16T09:48:38;6.18;;;4.30;;
53652;SDS011;39553;52.954;5.932;2023-01-16T09:51:26;9.98;;;4.43;;
53652;SDS011;39553;52.954;5.932;2023-01-16T09:54:01;9.93;;;4.40;;
53652;SDS011;39553;52.954;5.932;2023-01-16T09:56:54;12.48;;;4.57;;
53652;SDS011;39553;52.954;5.932;2023-01-16T09:59:46;7.95;;;4.43;;
53652;SDS011;39553;52.954;5.932;2023-01-16T10:02:22;8.18;;;4.15;;
53652;SDS011;39553;52.954;5.932;2023-01-16T10:04:54;9.10;;;3.88;;
53652;SDS011;39553;52.954;5.932;2023-01-16T10:10:14;6.80;;;3.70;;
53652;SDS011;39553;52.954;5.932;2023-01-16T10:13:31;8.50;;;3.80;;
53652;SDS011;39553;52.954;5.932;2023-01-16T10:15:40;7.55;;;3.75;;
53652;SDS011;39553;52.954;5.932;2023-01-16T10:18:30;9.77;;;3.00;;
53652;SDS011;39553;52.954;5.932;2023-01-16T10:26:38;5.43;;;2.20;;
53652;SDS011;39553;52.954;5.932;2023-01-16T10:36:58;4.43;;;1.90;;
53652;SDS011;39553;52.954;5.932;2023-01-16T10:39:30;3.05;;;1.85;;
53652;SDS011;39553;52.954;5.932;2023-01-16T10:42:14;3.15;;;1.42;;
53652;SDS011;39553;52.954;5.932;2023-01-16T10:45:19;4.38;;;1.80;;
53652;SDS011;39553;52.954;5.932;2023-01-16T10:48:11;5.15;;;1.83;;
53652;SDS011;39553;52.954;5.932;2023-01-16T10:50:57;3.97;;;1.70;;
53652;SDS011;39553;52.954;5.932;2023-01-16T10:53:25;3.22;;;1.73;;
53652;SDS011;39553;52.954;5.932;2023-01-16T10:55:51;4.68;;;1.77;;
53652;SDS011;39553;52.954;5.932;2023-01-16T10:58:24;2.55;;;1.92;;
53652;SDS011;39553;52.954;5.932;2023-01-16T11:00:52;3.10;;;1.70;;
53652;SDS011;39553;52.954;5.932;2023-01-16T11:03:41;3.25;;;1.75;;
53652;SDS011;39553;52.954;5.932;2023-01-16T11:08:38;3.00;;;2.00;;
53652;SDS011;39553;52.954;5.932;2023-01-16T11:11:05;2.00;;;1.48;;
53652;SDS011;39553;52.954;5.932;2023-01-16T11:13:53;3.10;;;1.83;;
53652;SDS011;39553;52.954;5.932;2023-01-16T11:16:38;5.25;;;1.90;;
53652;SDS011;39553;52.954;5.932;2023-01-16T11:19:24;2.40;;;1.85;;
53652;SDS011;39553;52.954;5.932;2023-01-16T11:21:59;2.95;;;1.67;;
53652;SDS011;39553;52.954;5.932;2023-01-16T11:24:30;2.20;;;1.65;;
53652;SDS011;39553;52.954;5.932;2023-01-16T11:26:58;4.25;;;2.15;;
53652;SDS011;39553;52.954;5.932;2023-01-16T11:29:26;3.45;;;1.80;;
53652;SDS011;39553;52.954;5.932;2023-01-16T11:32:03;2.45;;;1.70;;
53652;SDS011;39553;52.954;5.932;2023-01-16T11:34:31;4.25;;;2.05;;
53652;SDS011;39553;52.954;5.932;2023-01-16T11:37:00;2.40;;;1.90;;
53652;SDS011;39553;52.954;5.932;2023-01-16T11:39:29;3.63;;;2.15;;
53652;SDS011;39553;52.954;5.932;2023-01-16T11:41:58;3.30;;;2.40;;
53652;SDS011;39553;52.954;5.932;2023-01-16T11:44:47;2.92;;;1.98;;
53652;SDS011;39553;52.954;5.932;2023-01-16T11:47:31;3.57;;;1.90;;
53652;SDS011;39553;52.954;5.932;2023-01-16T11:50:18;3.63;;;2.53;;
53652;SDS011;39553;52.954;5.932;2023-01-16T11:52:52;4.05;;;2.33;;
53652;SDS011;39553;52.954;5.932;2023-01-16T11:55:18;6.75;;;2.90;;
53652;SDS011;39553;52.954;5.932;2023-01-16T11:57:47;4.85;;;3.17;;
53652;SDS011;39553;52.954;5.932;2023-01-16T12:00:52;6.20;;;2.88;;
53652;SDS011;39553;52.954;5.932;2023-01-16T12:06:08;5.05;;;3.30;;
53652;SDS011;39553;52.954;5.932;2023-01-16T12:11:44;7.57;;;4.40;;
53652;SDS011;39553;52.954;5.932;2023-01-16T12:14:26;5.28;;;2.97;;
53652;SDS011;39553;52.954;5.932;2023-01-16T12:36:58;5.78;;;3.75;;
53652;SDS011;39553;52.954;5.932;2023-01-16T12:48:06;6.63;;;4.30;;
53652;SDS011;39553;52.954;5.932;2023-01-16T12:58:48;6.40;;;4.25;;
53652;SDS011;39553;52.954;5.932;2023-01-16T13:01:28;10.52;;;4.57;;
53652;SDS011;39553;52.954;5.932;2023-01-16T13:04:00;8.13;;;4.38;;
53652;SDS011;39553;52.954;5.932;2023-01-16T13:09:04;7.05;;;5.03;;
53652;SDS011;39553;52.954;5.932;2023-01-16T13:15:17;7.85;;;4.88;;
53652;SDS011;39553;52.954;5.932;2023-01-16T13:18:27;6.60;;;5.15;;
53652;SDS011;39553;52.954;5.932;2023-01-16T13:20:57;6.80;;;4.85;;
53652;SDS011;39553;52.954;5.932;2023-01-16T13:23:29;8.80;;;5.38;;
53652;SDS011;39553;52.954;5.932;2023-01-16T13:25:58;8.98;;;5.13;;
53652;SDS011;39553;52.954;5.932;2023-01-16T13:31:45;7.93;;;5.60;;
53652;SDS011;39553;52.954;5.932;2023-01-16T13:37:27;10.07;;;4.90;;
53652;SDS011;39553;52.954;5.932;2023-01-16T13:43:01;8.13;;;4.68;;
53652;SDS011;39553;52.954;5.932;2023-01-16T13:45:52;5.32;;;4.07;;
53652;SDS011;39553;52.954;5.932;2023-01-16T13:48:21;7.18;;;4.63;;
53652;SDS011;39553;52.954;5.932;2023-01-16T13:51:02;7.95;;;4.30;;
53652;SDS011;39553;52.954;5.932;2023-01-16T13:53:41;6.35;;;4.03;;
53652;SDS011;39553;52.954;5.932;2023-01-16T13:56:21;8.10;;;4.30;;
53652;SDS011;39553;52.954;5.932;2023-01-16T13:58:49;5.47;;;4.22;;
53652;SDS011;39553;52.954;5.932;2023-01-16T14:01:28;6.07;;;4.32;;
53652;SDS011;39553;52.954;5.932;2023-01-16T14:07:21;5.28;;;4.10;;
53652;SDS011;39553;52.954;5.932;2023-01-16T14:10:26;8.05;;;4.22;;
53652;SDS011;39553;52.954;5.932;2023-01-16T14:15:54;7.43;;;3.92;;
53652;SDS011;39553;52.954;5.932;2023-01-16T14:18:58;8.30;;;4.65;;
53652;SDS011;39553;52.954;5.932;2023-01-16T14:21:44;8.10;;;4.93;;
53652;SDS011;39553;52.954;5.932;2023-01-16T14:24:36;8.88;;;5.75;;
53652;SDS011;39553;52.954;5.932;2023-01-16T14:27:06;12.93;;;6.22;;
53652;SDS011;39553;52.954;5.932;2023-01-16T14:29:49;7.38;;;4.60;;
53652;SDS011;39553;52.954;5.932;2023-01-16T14:32:19;11.30;;;5.43;;
53652;SDS011;39553;52.954;5.932;2023-01-16T14:35:01;9.00;;;5.05;;
53652;SDS011;39553;52.954;5.932;2023-01-16T14:37:42;7.95;;;5.03;;
53652;SDS011;39553;52.954;5.932;2023-01-16T14:40:30;8.13;;;5.10;;
53652;SDS011;39553;52.954;5.932;2023-01-16T14:43:30;8.57;;;5.95;;
53652;SDS011;39553;52.954;5.932;2023-01-16T14:46:25;7.63;;;5.78;;
53652;SDS011;39553;52.954;5.932;2023-01-16T14:52:35;7.93;;;5.05;;
53652;SDS011;39553;52.954;5.932;2023-01-16T14:58:20;9.50;;;5.53;;
53652;SDS011;39553;52.954;5.932;2023-01-16T15:00:56;7.30;;;5.15;;
53652;SDS011;39553;52.954;5.932;2023-01-16T15:03:44;10.90;;;5.57;;
53652;SDS011;39553;52.954;5.932;2023-01-16T15:06:10;12.20;;;5.97;;
53652;SDS011;39553;52.954;5.932;2023-01-16T15:08:40;11.45;;;5.10;;
53652;SDS011;39553;52.954;5.932;2023-01-16T15:11:28;13.77;;;5.03;;
53652;SDS011;39553;52.954;5.932;2023-01-16T15:16:52;6.00;;;4.65;;
53652;SDS011;39553;52.954;5.932;2023-01-16T15:23:15;9.30;;;5.15;;
53652;SDS011;39553;52.954;5.932;2023-01-16T15:31:00;11.95;;;6.18;;
53652;SDS011;39553;52.954;5.932;2023-01-16T15:33:31;9.65;;;6.80;;
53652;SDS011;39553;52.954;5.932;2023-01-16T15:38:52;10.07;;;8.00;;
53652;SDS011;39553;52.954;5.932;2023-01-16T15:41:29;10.20;;;6.70;;
53652;SDS011;39553;52.954;5.932;2023-01-16T15:44:20;14.55;;;7.18;;
53652;SDS011;39553;52.954;5.932;2023-01-16T15:52:32;10.73;;;6.47;;
53652;SDS011;39553;52.954;5.932;2023-01-16T15:57:51;9.90;;;6.43;;
53652;SDS011;39553;52.954;5.932;2023-01-16T16:00:24;13.63;;;7.65;;
53652;SDS011;39553;52.954;5.932;2023-01-16T16:03:16;12.93;;;7.25;;
53652;SDS011;39553;52.954;5.932;2023-01-16T16:05:51;11.90;;;7.10;;
53652;SDS011;39553;52.954;5.932;2023-01-16T16:08:25;9.15;;;6.50;;
53652;SDS011;39553;52.954;5.932;2023-01-16T16:10:54;9.48;;;6.65;;
53652;SDS011;39553;52.954;5.932;2023-01-16T16:13:40;10.90;;;7.18;;
53652;SDS011;39553;52.954;5.932;2023-01-16T16:18:59;8.68;;;6.47;;
53652;SDS011;39553;52.954;5.932;2023-01-16T16:21:27;11.65;;;6.28;;
53652;SDS011;39553;52.954;5.932;2023-01-16T16:24:05;10.65;;;6.07;;
53652;SDS011;39553;52.954;5.932;2023-01-16T16:26:40;7.78;;;5.68;;
53652;SDS011;39553;52.954;5.932;2023-01-16T16:29:17;7.38;;;5.07;;
53652;SDS011;39553;52.954;5.932;2023-01-16T16:31:45;6.43;;;4.47;;
53652;SDS011;39553;52.954;5.932;2023-01-16T16:34:23;8.88;;;4.68;;
53652;SDS011;39553;52.954;5.932;2023-01-16T16:36:54;6.70;;;4.28;;
53652;SDS011;39553;52.954;5.932;2023-01-16T16:39:26;6.93;;;4.63;;
53652;SDS011;39553;52.954;5.932;2023-01-16T16:41:58;6.40;;;4.22;;
53652;SDS011;39553;52.954;5.932;2023-01-16T16:45:03;5.97;;;4.00;;
53652;SDS011;39553;52.954;5.932;2023-01-16T16:50:01;6.80;;;4.95;;
53652;SDS011;39553;52.954;5.932;2023-01-16T16:52:47;6.65;;;4.43;;
53652;SDS011;39553;52.954;5.932;2023-01-16T16:55:33;8.63;;;5.13;;
53652;SDS011;39553;52.954;5.932;2023-01-16T16:58:04;7.13;;;5.05;;
53652;SDS011;39553;52.954;5.932;2023-01-16T17:00:38;6.93;;;4.80;;
53652;SDS011;39553;52.954;5.932;2023-01-16T17:03:26;8.75;;;4.75;;
53652;SDS011;39553;52.954;5.932;2023-01-16T17:05:53;6.72;;;4.80;;
53652;SDS011;39553;52.954;5.932;2023-01-16T17:08:20;7.55;;;4.10;;
53652;SDS011;39553;52.954;5.932;2023-01-16T17:10:53;5.25;;;3.80;;
53652;SDS011;39553;52.954;5.932;2023-01-16T17:13:20;6.43;;;4.35;;
53652;SDS011;39553;52.954;5.932;2023-01-16T17:15:47;5.57;;;3.50;;
53652;SDS011;39553;52.954;5.932;2023-01-16T17:18:17;6.70;;;4.22;;
53652;SDS011;39553;52.954;5.932;2023-01-16T17:20:44;7.15;;;4.03;;
53652;SDS011;39553;52.954;5.932;2023-01-16T17:23:12;6.40;;;4.10;;
53652;SDS011;39553;52.954;5.932;2023-01-16T17:25:39;6.65;;;4.70;;
53652;SDS011;39553;52.954;5.932;2023-01-16T17:28:07;5.35;;;3.90;;
53652;SDS011;39553;52.954;5.932;2023-01-16T17:30:33;6.57;;;4.32;;
53652;SDS011;39553;52.954;5.932;2023-01-16T17:33:01;12.63;;;7.80;;
53652;SDS011;39553;52.954;5.932;2023-01-16T17:35:37;13.57;;;8.02;;
53652;SDS011;39553;52.954;5.932;2023-01-16T17:38:07;8.63;;;5.53;;
53652;SDS011;39553;52.954;5.932;2023-01-16T17:40:36;7.97;;;5.32;;
53652;SDS011;39553;52.954;5.932;2023-01-16T17:43:02;8.52;;;4.97;;
53652;SDS011;39553;52.954;5.932;2023-01-16T17:45:47;7.32;;;4.97;;
53652;SDS011;39553;52.954;5.932;2023-01-16T17:48:26;5.07;;;2.58;;
53652;SDS011;39553;52.954;5.932;2023-01-16T17:50:53;4.55;;;2.78;;
53652;SDS011;39553;52.954;5.932;2023-01-16T17:53:21;3.30;;;2.17;;
53652;SDS011;39553;52.954;5.932;2023-01-16T17:55:49;3.75;;;2.33;;
53652;SDS011;39553;52.954;5.932;2023-01-16T17:58:27;3.42;;;2.28;;